Carlsbad, CA

6:06 AM PDT on September 02, 2014 (GMT -0700)
McClellan-Palomar | Change Station
CLOSE
Current Station
Airport
Location: Carlsbad,
Elevation: 328 ft
Nearby Weather Stations

Elev 328 ft 33.13 °N, 117.28 °W | Updated 13 minutes ago

Overcast
Overcast
68 °F
Feels Like 68 °F
N
0
Wind Variable Wind from North

Today
High -- | Low -- °F
--% Chance of Precip.
Yesterday
High -- | Low -- °F
Precip. -- in
6:24 AM 7:12 PM
Waxing Crescent, 51% visible
Pressure 29.84 in
Visibility 10.0 miles
Clouds Overcast 1400 ft
Dew Point 61 °F
Humidity 78%
Rainfall 0.00 in
Snow Depth Not available.
UV 0 out of 12
Pollen 7.80 out of 12
PM2.5 Good
Flu Activity Not available.
METAR KCRQ 021253Z AUTO 00000KT 10SM OVC014 20/16 A2985 RMK AO2 SLP105 T02000161

More Conditions Fewer Conditions

Pressure 29.84 in
Visibility 10.0 miles
Clouds Overcast 1400 ft
Dew Point 61 °F
Humidity 78%
Rainfall 0.00 in
Snow Depth Not available.
UV 0 out of 12
Pollen 7.80 out of 12
PM2.5 Good
Flu Activity Not available.
METAR KCRQ 021253Z AUTO 00000KT 10SM OVC014 20/16 A2985 RMK AO2 SLP105 T02000161

More Conditions Fewer Conditions

10-Day Weather Forecast

Almanac

Astronomy

Sep. 02, 2014 Rise Set
Actual Time 6:24 AM PDT 7:12 PM PDT
Civil Twilight 5:59 AM PDT 7:37 PM PDT
Nautical Twilight 5:29 AM PDT 8:07 PM PDT
Astronomical Twilight 4:58 AM PDT 8:37 PM PDT
Moon 1:51 PM PDT No Moon Set
Length of Visible Light 13h 38m
Length of Day
12h 48m
Tomorrow will be 1m 57s shorter.
Waxing Crescent, 51% of the Moon is Illuminated
Today
Waxing Crescent
Sep 8
Full
Sep 15
Last Quarter
Sep 24
New
Oct 1
First Quarter

Today's Extremes

State Highs State Lows

Community

WunderPhotos

Upload Photos

1,749,648 photos uploaded!

Nearby

Air Quality

  Air Quality AQ Index Pollutant
Yesterday Good
PM2.5
Yesterday Good
OZONE
Current Good
PM2.5
Tuesday Good
PM2.5

Snow Depth

Station Depth Elevation
Leavitt Lake 1 in 9400 ft
Leavitt Meadows 1 in 7200 ft
Sonora Pass 0 in 8800 ft
Monitor Pass 0 in 8350 ft
Blue Lakes 0 in 8000 ft

Earthquake Activity

City Distance Mag. Time & Date
Holtville, California 110 miles 2.5 5:43 PM PDT
2014-09-01
Holtville, California 112 miles 2.5 5:26 PM PDT
2014-09-01
Malibu, California 112 miles 2.5 8:11 AM PDT
2014-08-30
Minimum magnitude displayed is 2.5.

Coastal Water Temperatures

Place Temperature
La Jolla, CA 71.1 °F
San Diego, CA 73.9 °F

Nearby Weather Stations